sensor_id;sensor_type;location;lat;lon;timestamp;P1;durP1;ratioP1;P2;durP2;ratioP2
53594;SDS011;39479;45.720;11.310;2023-05-20T00:00:07;7.28;;;5.90;;
53594;SDS011;39479;45.720;11.310;2023-05-20T00:02:34;8.93;;;6.07;;
53594;SDS011;39479;45.720;11.310;2023-05-20T00:05:00;8.15;;;6.03;;
53594;SDS011;39479;45.720;11.310;2023-05-20T00:07:26;7.93;;;6.20;;
53594;SDS011;39479;45.720;11.310;2023-05-20T00:09:52;9.52;;;5.85;;
53594;SDS011;39479;45.720;11.310;2023-05-20T00:12:18;7.68;;;6.22;;
53594;SDS011;39479;45.720;11.310;2023-05-20T00:14:44;6.97;;;6.28;;
53594;SDS011;39479;45.720;11.310;2023-05-20T00:17:10;8.38;;;5.70;;
53594;SDS011;39479;45.720;11.310;2023-05-20T00:19:36;7.78;;;5.97;;
53594;SDS011;39479;45.720;11.310;2023-05-20T00:22:02;9.35;;;6.60;;
53594;SDS011;39479;45.720;11.310;2023-05-20T00:24:28;6.68;;;6.00;;
53594;SDS011;39479;45.720;11.310;2023-05-20T00:26:54;7.68;;;6.63;;
53594;SDS011;39479;45.720;11.310;2023-05-20T00:29:20;9.05;;;6.07;;
53594;SDS011;39479;45.720;11.310;2023-05-20T00:31:46;10.15;;;6.53;;
53594;SDS011;39479;45.720;11.310;2023-05-20T00:34:12;9.25;;;6.32;;
53594;SDS011;39479;45.720;11.310;2023-05-20T00:36:38;9.63;;;6.35;;
53594;SDS011;39479;45.720;11.310;2023-05-20T00:39:04;7.28;;;6.35;;
53594;SDS011;39479;45.720;11.310;2023-05-20T00:41:31;7.60;;;5.57;;
53594;SDS011;39479;45.720;11.310;2023-05-20T00:43:57;7.30;;;6.20;;
53594;SDS011;39479;45.720;11.310;2023-05-20T00:46:23;7.82;;;6.43;;
53594;SDS011;39479;45.720;11.310;2023-05-20T00:48:51;8.40;;;6.03;;
53594;SDS011;39479;45.720;11.310;2023-05-20T00:51:17;7.85;;;6.35;;
53594;SDS011;39479;45.720;11.310;2023-05-20T00:53:43;11.48;;;6.15;;
53594;SDS011;39479;45.720;11.310;2023-05-20T00:56:10;8.75;;;6.35;;
53594;SDS011;39479;45.720;11.310;2023-05-20T00:58:36;7.13;;;6.00;;
53594;SDS011;39479;45.720;11.310;2023-05-20T01:01:03;9.65;;;5.80;;
53594;SDS011;39479;45.720;11.310;2023-05-20T01:03:29;7.05;;;5.75;;
53594;SDS011;39479;45.720;11.310;2023-05-20T01:05:55;7.78;;;5.95;;
53594;SDS011;39479;45.720;11.310;2023-05-20T01:08:22;6.70;;;6.00;;
53594;SDS011;39479;45.720;11.310;2023-05-20T01:10:50;7.80;;;6.13;;
53594;SDS011;39479;45.720;11.310;2023-05-20T01:13:19;7.85;;;5.72;;
53594;SDS011;39479;45.720;11.310;2023-05-20T01:15:46;8.73;;;6.78;;
53594;SDS011;39479;45.720;11.310;2023-05-20T01:18:13;9.02;;;7.05;;
53594;SDS011;39479;45.720;11.310;2023-05-20T01:20:42;7.63;;;6.55;;
53594;SDS011;39479;45.720;11.310;2023-05-20T01:23:09;7.20;;;6.03;;
53594;SDS011;39479;45.720;11.310;2023-05-20T01:25:35;7.45;;;6.47;;
53594;SDS011;39479;45.720;11.310;2023-05-20T01:28:01;10.77;;;5.97;;
53594;SDS011;39479;45.720;11.310;2023-05-20T01:30:28;7.65;;;6.07;;
53594;SDS011;39479;45.720;11.310;2023-05-20T01:33:03;7.25;;;5.68;;
53594;SDS011;39479;45.720;11.310;2023-05-20T01:35:31;9.38;;;6.47;;
53594;SDS011;39479;45.720;11.310;2023-05-20T01:37:57;7.65;;;6.10;;
53594;SDS011;39479;45.720;11.310;2023-05-20T01:40:23;7.07;;;6.10;;
53594;SDS011;39479;45.720;11.310;2023-05-20T01:42:51;9.32;;;6.20;;
53594;SDS011;39479;45.720;11.310;2023-05-20T01:45:19;7.88;;;6.10;;
53594;SDS011;39479;45.720;11.310;2023-05-20T01:47:45;7.72;;;6.10;;
53594;SDS011;39479;45.720;11.310;2023-05-20T01:50:11;8.52;;;6.70;;
53594;SDS011;39479;45.720;11.310;2023-05-20T01:52:37;8.32;;;5.75;;
53594;SDS011;39479;45.720;11.310;2023-05-20T01:55:03;7.32;;;5.80;;
53594;SDS011;39479;45.720;11.310;2023-05-20T01:57:29;7.65;;;5.95;;
53594;SDS011;39479;45.720;11.310;2023-05-20T01:59:55;10.68;;;6.85;;
53594;SDS011;39479;45.720;11.310;2023-05-20T02:02:22;9.32;;;5.97;;
53594;SDS011;39479;45.720;11.310;2023-05-20T02:04:49;8.73;;;5.93;;
53594;SDS011;39479;45.720;11.310;2023-05-20T02:07:15;8.43;;;5.93;;
53594;SDS011;39479;45.720;11.310;2023-05-20T02:09:42;7.10;;;6.40;;
53594;SDS011;39479;45.720;11.310;2023-05-20T02:12:08;9.80;;;6.07;;
53594;SDS011;39479;45.720;11.310;2023-05-20T02:14:40;8.15;;;6.30;;
53594;SDS011;39479;45.720;11.310;2023-05-20T02:17:06;7.45;;;6.38;;
53594;SDS011;39479;45.720;11.310;2023-05-20T02:19:32;8.13;;;6.20;;
53594;SDS011;39479;45.720;11.310;2023-05-20T02:21:58;8.20;;;5.97;;
53594;SDS011;39479;45.720;11.310;2023-05-20T02:24:24;9.18;;;6.20;;
53594;SDS011;39479;45.720;11.310;2023-05-20T02:26:50;8.32;;;6.07;;
53594;SDS011;39479;45.720;11.310;2023-05-20T02:29:17;7.20;;;6.38;;
53594;SDS011;39479;45.720;11.310;2023-05-20T02:31:46;8.88;;;5.47;;
53594;SDS011;39479;45.720;11.310;2023-05-20T02:34:12;8.68;;;5.97;;
53594;SDS011;39479;45.720;11.310;2023-05-20T02:36:38;6.68;;;5.93;;
53594;SDS011;39479;45.720;11.310;2023-05-20T02:39:05;7.00;;;5.78;;
53594;SDS011;39479;45.720;11.310;2023-05-20T02:41:31;7.95;;;5.43;;
53594;SDS011;39479;45.720;11.310;2023-05-20T02:43:57;7.15;;;5.50;;
53594;SDS011;39479;45.720;11.310;2023-05-20T02:46:23;14.98;;;6.05;;
53594;SDS011;39479;45.720;11.310;2023-05-20T02:48:49;8.75;;;5.93;;
53594;SDS011;39479;45.720;11.310;2023-05-20T02:51:15;6.70;;;5.82;;
53594;SDS011;39479;45.720;11.310;2023-05-20T02:53:41;7.57;;;6.57;;
53594;SDS011;39479;45.720;11.310;2023-05-20T02:56:07;7.47;;;5.50;;
53594;SDS011;39479;45.720;11.310;2023-05-20T02:58:33;6.10;;;4.95;;
53594;SDS011;39479;45.720;11.310;2023-05-20T03:01:00;7.78;;;5.50;;
53594;SDS011;39479;45.720;11.310;2023-05-20T03:03:26;7.03;;;5.97;;
53594;SDS011;39479;45.720;11.310;2023-05-20T03:05:52;8.45;;;5.93;;
53594;SDS011;39479;45.720;11.310;2023-05-20T03:08:19;6.07;;;5.28;;
53594;SDS011;39479;45.720;11.310;2023-05-20T03:10:46;6.38;;;5.28;;
53594;SDS011;39479;45.720;11.310;2023-05-20T03:13:12;9.25;;;5.90;;
53594;SDS011;39479;45.720;11.310;2023-05-20T03:15:39;8.18;;;5.63;;
53594;SDS011;39479;45.720;11.310;2023-05-20T03:18:05;7.57;;;5.50;;
53594;SDS011;39479;45.720;11.310;2023-05-20T03:20:34;8.07;;;5.72;;
53594;SDS011;39479;45.720;11.310;2023-05-20T03:23:01;7.88;;;5.35;;
53594;SDS011;39479;45.720;11.310;2023-05-20T03:25:27;7.28;;;5.50;;
53594;SDS011;39479;45.720;11.310;2023-05-20T03:27:53;5.95;;;5.30;;
53594;SDS011;39479;45.720;11.310;2023-05-20T03:30:19;8.05;;;5.53;;
53594;SDS011;39479;45.720;11.310;2023-05-20T03:32:45;6.95;;;5.47;;
53594;SDS011;39479;45.720;11.310;2023-05-20T03:35:11;7.10;;;5.63;;
53594;SDS011;39479;45.720;11.310;2023-05-20T03:37:37;7.78;;;5.32;;
53594;SDS011;39479;45.720;11.310;2023-05-20T03:40:04;8.93;;;6.05;;
53594;SDS011;39479;45.720;11.310;2023-05-20T03:42:30;6.28;;;5.57;;
53594;SDS011;39479;45.720;11.310;2023-05-20T03:44:56;7.45;;;5.50;;
53594;SDS011;39479;45.720;11.310;2023-05-20T03:47:24;7.43;;;5.07;;
53594;SDS011;39479;45.720;11.310;2023-05-20T03:49:50;7.45;;;4.80;;
53594;SDS011;39479;45.720;11.310;2023-05-20T03:52:16;7.95;;;5.13;;
53594;SDS011;39479;45.720;11.310;2023-05-20T03:54:43;8.10;;;5.03;;
53594;SDS011;39479;45.720;11.310;2023-05-20T03:57:09;6.38;;;5.07;;
53594;SDS011;39479;45.720;11.310;2023-05-20T03:59:35;7.35;;;5.18;;
53594;SDS011;39479;45.720;11.310;2023-05-20T04:02:01;5.53;;;5.00;;
53594;SDS011;39479;45.720;11.310;2023-05-20T04:04:28;8.57;;;5.75;;
53594;SDS011;39479;45.720;11.310;2023-05-20T04:06:54;6.22;;;5.28;;
53594;SDS011;39479;45.720;11.310;2023-05-20T04:09:21;5.80;;;5.03;;
53594;SDS011;39479;45.720;11.310;2023-05-20T04:11:47;7.90;;;5.78;;
53594;SDS011;39479;45.720;11.310;2023-05-20T04:14:13;6.03;;;4.88;;
53594;SDS011;39479;45.720;11.310;2023-05-20T04:16:39;10.07;;;6.00;;
53594;SDS011;39479;45.720;11.310;2023-05-20T04:19:05;5.60;;;4.85;;
53594;SDS011;39479;45.720;11.310;2023-05-20T04:21:31;6.10;;;5.30;;
53594;SDS011;39479;45.720;11.310;2023-05-20T04:23:57;7.55;;;5.13;;
53594;SDS011;39479;45.720;11.310;2023-05-20T04:26:24;6.60;;;5.10;;
53594;SDS011;39479;45.720;11.310;2023-05-20T04:28:50;6.65;;;5.00;;
53594;SDS011;39479;45.720;11.310;2023-05-20T04:31:16;7.78;;;5.07;;
53594;SDS011;39479;45.720;11.310;2023-05-20T04:33:42;6.78;;;4.78;;
53594;SDS011;39479;45.720;11.310;2023-05-20T04:36:09;6.38;;;5.00;;
53594;SDS011;39479;45.720;11.310;2023-05-20T04:38:36;6.07;;;5.13;;
53594;SDS011;39479;45.720;11.310;2023-05-20T04:41:02;6.10;;;4.63;;
53594;SDS011;39479;45.720;11.310;2023-05-20T04:43:29;8.75;;;5.30;;
53594;SDS011;39479;45.720;11.310;2023-05-20T04:45:55;11.95;;;5.40;;
53594;SDS011;39479;45.720;11.310;2023-05-20T04:48:22;6.38;;;5.00;;
53594;SDS011;39479;45.720;11.310;2023-05-20T04:50:48;6.75;;;5.38;;
53594;SDS011;39479;45.720;11.310;2023-05-20T04:53:16;7.18;;;5.18;;
53594;SDS011;39479;45.720;11.310;2023-05-20T04:55:42;6.70;;;6.00;;
53594;SDS011;39479;45.720;11.310;2023-05-20T04:58:08;8.23;;;5.40;;
53594;SDS011;39479;45.720;11.310;2023-05-20T05:00:41;6.15;;;5.10;;
53594;SDS011;39479;45.720;11.310;2023-05-20T05:03:07;6.25;;;5.03;;
53594;SDS011;39479;45.720;11.310;2023-05-20T05:05:34;5.68;;;4.78;;
53594;SDS011;39479;45.720;11.310;2023-05-20T05:08:03;6.45;;;4.82;;
53594;SDS011;39479;45.720;11.310;2023-05-20T05:10:30;6.40;;;5.15;;
53594;SDS011;39479;45.720;11.310;2023-05-20T05:12:56;6.55;;;4.70;;
53594;SDS011;39479;45.720;11.310;2023-05-20T05:15:22;7.05;;;5.32;;
53594;SDS011;39479;45.720;11.310;2023-05-20T05:17:48;8.80;;;5.38;;
53594;SDS011;39479;45.720;11.310;2023-05-20T05:20:15;7.13;;;5.00;;
53594;SDS011;39479;45.720;11.310;2023-05-20T05:22:41;5.63;;;5.03;;
53594;SDS011;39479;45.720;11.310;2023-05-20T05:25:07;6.95;;;5.05;;
53594;SDS011;39479;45.720;11.310;2023-05-20T05:27:33;6.18;;;4.60;;
53594;SDS011;39479;45.720;11.310;2023-05-20T05:30:00;5.68;;;5.13;;
53594;SDS011;39479;45.720;11.310;2023-05-20T05:32:26;5.63;;;4.72;;
53594;SDS011;39479;45.720;11.310;2023-05-20T05:34:52;5.32;;;4.18;;
53594;SDS011;39479;45.720;11.310;2023-05-20T05:37:18;6.28;;;5.30;;
53594;SDS011;39479;45.720;11.310;2023-05-20T05:39:45;5.95;;;4.68;;
53594;SDS011;39479;45.720;11.310;2023-05-20T05:42:11;5.97;;;4.90;;
53594;SDS011;39479;45.720;11.310;2023-05-20T05:44:37;7.47;;;5.10;;
53594;SDS011;39479;45.720;11.310;2023-05-20T05:47:03;4.82;;;4.18;;
53594;SDS011;39479;45.720;11.310;2023-05-20T05:49:30;7.25;;;4.63;;
53594;SDS011;39479;45.720;11.310;2023-05-20T05:51:56;7.85;;;5.03;;
53594;SDS011;39479;45.720;11.310;2023-05-20T05:54:22;5.32;;;4.80;;
53594;SDS011;39479;45.720;11.310;2023-05-20T05:56:52;5.72;;;4.40;;
53594;SDS011;39479;45.720;11.310;2023-05-20T05:59:20;5.88;;;5.05;;
53594;SDS011;39479;45.720;11.310;2023-05-20T06:01:46;7.22;;;5.20;;
53594;SDS011;39479;45.720;11.310;2023-05-20T06:04:12;7.85;;;5.82;;
53594;SDS011;39479;45.720;11.310;2023-05-20T06:06:38;6.00;;;4.68;;
53594;SDS011;39479;45.720;11.310;2023-05-20T06:09:04;9.40;;;6.00;;
53594;SDS011;39479;45.720;11.310;2023-05-20T06:11:31;6.75;;;5.55;;
53594;SDS011;39479;45.720;11.310;2023-05-20T06:13:57;7.88;;;5.00;;
53594;SDS011;39479;45.720;11.310;2023-05-20T06:16:24;6.93;;;5.55;;
53594;SDS011;39479;45.720;11.310;2023-05-20T06:18:50;6.55;;;5.72;;
53594;SDS011;39479;45.720;11.310;2023-05-20T06:21:17;6.63;;;5.95;;
53594;SDS011;39479;45.720;11.310;2023-05-20T06:23:43;6.20;;;5.43;;
53594;SDS011;39479;45.720;11.310;2023-05-20T06:26:09;6.78;;;5.18;;
53594;SDS011;39479;45.720;11.310;2023-05-20T06:28:35;5.90;;;4.90;;
53594;SDS011;39479;45.720;11.310;2023-05-20T06:31:01;5.85;;;5.00;;
53594;SDS011;39479;45.720;11.310;2023-05-20T06:33:27;6.00;;;5.40;;
53594;SDS011;39479;45.720;11.310;2023-05-20T06:35:54;6.47;;;5.10;;
53594;SDS011;39479;45.720;11.310;2023-05-20T06:38:20;7.70;;;5.30;;
53594;SDS011;39479;45.720;11.310;2023-05-20T06:40:49;6.18;;;4.82;;
53594;SDS011;39479;45.720;11.310;2023-05-20T06:43:16;5.55;;;4.65;;
53594;SDS011;39479;45.720;11.310;2023-05-20T06:45:42;7.97;;;5.03;;
53594;SDS011;39479;45.720;11.310;2023-05-20T06:48:08;7.45;;;5.05;;
53594;SDS011;39479;45.720;11.310;2023-05-20T06:50:35;6.43;;;5.72;;
53594;SDS011;39479;45.720;11.310;2023-05-20T06:53:01;7.00;;;5.43;;
53594;SDS011;39479;45.720;11.310;2023-05-20T06:55:28;6.15;;;5.10;;
53594;SDS011;39479;45.720;11.310;2023-05-20T06:57:54;6.53;;;4.93;;
53594;SDS011;39479;45.720;11.310;2023-05-20T07:00:20;6.88;;;5.03;;
53594;SDS011;39479;45.720;11.310;2023-05-20T07:02:46;5.75;;;4.80;;
53594;SDS011;39479;45.720;11.310;2023-05-20T07:05:12;5.82;;;5.22;;
53594;SDS011;39479;45.720;11.310;2023-05-20T07:07:38;6.38;;;4.63;;
53594;SDS011;39479;45.720;11.310;2023-05-20T07:10:04;5.28;;;4.78;;
53594;SDS011;39479;45.720;11.310;2023-05-20T07:12:31;6.00;;;5.20;;
53594;SDS011;39479;45.720;11.310;2023-05-20T07:14:57;6.85;;;5.32;;
53594;SDS011;39479;45.720;11.310;2023-05-20T07:17:23;7.10;;;4.97;;
53594;SDS011;39479;45.720;11.310;2023-05-20T07:19:50;7.03;;;5.38;;
53594;SDS011;39479;45.720;11.310;2023-05-20T07:22:16;6.00;;;5.03;;
53594;SDS011;39479;45.720;11.310;2023-05-20T07:24:42;5.75;;;5.03;;
53594;SDS011;39479;45.720;11.310;2023-05-20T07:27:08;7.28;;;5.03;;
53594;SDS011;39479;45.720;11.310;2023-05-20T07:29:35;8.10;;;5.63;;
53594;SDS011;39479;45.720;11.310;2023-05-20T07:32:01;6.25;;;5.13;;
53594;SDS011;39479;45.720;11.310;2023-05-20T07:34:27;6.65;;;5.75;;
53594;SDS011;39479;45.720;11.310;2023-05-20T07:36:53;8.20;;;6.10;;
53594;SDS011;39479;45.720;11.310;2023-05-20T07:39:21;8.05;;;6.15;;
53594;SDS011;39479;45.720;11.310;2023-05-20T07:41:47;11.85;;;6.85;;
53594;SDS011;39479;45.720;11.310;2023-05-20T07:44:13;7.10;;;6.13;;
53594;SDS011;39479;45.720;11.310;2023-05-20T07:46:40;11.23;;;6.85;;
53594;SDS011;39479;45.720;11.310;2023-05-20T07:49:06;10.73;;;6.88;;
53594;SDS011;39479;45.720;11.310;2023-05-20T07:51:32;9.43;;;6.88;;
53594;SDS011;39479;45.720;11.310;2023-05-20T07:53:58;10.38;;;6.38;;
53594;SDS011;39479;45.720;11.310;2023-05-20T07:56:24;7.38;;;6.43;;
53594;SDS011;39479;45.720;11.310;2023-05-20T07:58:56;8.80;;;6.68;;
53594;SDS011;39479;45.720;11.310;2023-05-20T08:01:23;7.78;;;6.05;;
53594;SDS011;39479;45.720;11.310;2023-05-20T08:03:49;6.38;;;5.60;;
53594;SDS011;39479;45.720;11.310;2023-05-20T08:06:16;7.20;;;5.97;;
53594;SDS011;39479;45.720;11.310;2023-05-20T08:08:42;7.57;;;5.90;;
53594;SDS011;39479;45.720;11.310;2023-05-20T08:11:08;7.00;;;6.30;;
53594;SDS011;39479;45.720;11.310;2023-05-20T08:13:34;7.70;;;5.93;;
53594;SDS011;39479;45.720;11.310;2023-05-20T08:16:00;8.60;;;5.82;;
53594;SDS011;39479;45.720;11.310;2023-05-20T08:18:33;7.10;;;5.93;;
53594;SDS011;39479;45.720;11.310;2023-05-20T08:21:00;5.88;;;5.28;;
53594;SDS011;39479;45.720;11.310;2023-05-20T08:23:26;6.68;;;5.25;;
53594;SDS011;39479;45.720;11.310;2023-05-20T08:25:52;6.50;;;5.75;;
53594;SDS011;39479;45.720;11.310;2023-05-20T08:28:18;7.05;;;6.22;;
53594;SDS011;39479;45.720;11.310;2023-05-20T08:30:46;8.63;;;6.78;;
53594;SDS011;39479;45.720;11.310;2023-05-20T08:33:12;7.18;;;6.47;;
53594;SDS011;39479;45.720;11.310;2023-05-20T08:35:38;8.85;;;7.10;;
53594;SDS011;39479;45.720;11.310;2023-05-20T08:38:05;7.75;;;6.82;;
53594;SDS011;39479;45.720;11.310;2023-05-20T08:40:33;7.32;;;6.60;;
53594;SDS011;39479;45.720;11.310;2023-05-20T08:43:00;8.68;;;7.13;;
53594;SDS011;39479;45.720;11.310;2023-05-20T08:45:26;7.32;;;6.25;;
53594;SDS011;39479;45.720;11.310;2023-05-20T08:47:52;9.32;;;6.85;;
53594;SDS011;39479;45.720;11.310;2023-05-20T08:50:19;9.48;;;6.65;;
53594;SDS011;39479;45.720;11.310;2023-05-20T08:52:46;25.60;;;21.20;;
53594;SDS011;39479;45.720;11.310;2023-05-20T08:55:58;20.23;;;15.82;;
53594;SDS011;39479;45.720;11.310;2023-05-20T08:57:59;10.00;;;7.28;;
53594;SDS011;39479;45.720;11.310;2023-05-20T09:00:25;10.13;;;7.43;;
53594;SDS011;39479;45.720;11.310;2023-05-20T09:02:53;9.50;;;7.20;;
53594;SDS011;39479;45.720;11.310;2023-05-20T09:05:19;10.27;;;7.45;;
53594;SDS011;39479;45.720;11.310;2023-05-20T09:07:46;8.15;;;7.35;;
53594;SDS011;39479;45.720;11.310;2023-05-20T09:10:12;8.55;;;7.28;;
53594;SDS011;39479;45.720;11.310;2023-05-20T09:12:38;8.25;;;7.38;;
53594;SDS011;39479;45.720;11.310;2023-05-20T09:15:04;9.48;;;8.25;;
53594;SDS011;39479;45.720;11.310;2023-05-20T09:17:31;8.85;;;7.90;;
53594;SDS011;39479;45.720;11.310;2023-05-20T09:19:57;11.27;;;8.18;;
53594;SDS011;39479;45.720;11.310;2023-05-20T09:22:23;10.63;;;8.63;;
53594;SDS011;39479;45.720;11.310;2023-05-20T09:24:50;11.93;;;7.80;;
53594;SDS011;39479;45.720;11.310;2023-05-20T09:27:16;9.45;;;7.93;;
53594;SDS011;39479;45.720;11.310;2023-05-20T09:29:43;10.55;;;8.70;;
53594;SDS011;39479;45.720;11.310;2023-05-20T09:32:09;11.68;;;9.15;;
53594;SDS011;39479;45.720;11.310;2023-05-20T09:34:39;10.55;;;7.90;;
53594;SDS011;39479;45.720;11.310;2023-05-20T09:37:07;10.07;;;8.55;;
53594;SDS011;39479;45.720;11.310;2023-05-20T09:39:38;10.98;;;9.27;;
53594;SDS011;39479;45.720;11.310;2023-05-20T09:42:05;11.75;;;9.25;;
53594;SDS011;39479;45.720;11.310;2023-05-20T09:44:34;11.02;;;9.48;;
53594;SDS011;39479;45.720;11.310;2023-05-20T09:47:00;10.98;;;9.30;;
53594;SDS011;39479;45.720;11.310;2023-05-20T09:49:27;10.68;;;9.50;;
53594;SDS011;39479;45.720;11.310;2023-05-20T09:51:53;10.13;;;9.07;;
53594;SDS011;39479;45.720;11.310;2023-05-20T09:54:21;10.15;;;8.50;;
53594;SDS011;39479;45.720;11.310;2023-05-20T09:56:48;14.70;;;8.77;;
53594;SDS011;39479;45.720;11.310;2023-05-20T09:59:15;10.18;;;8.57;;
53594;SDS011;39479;45.720;11.310;2023-05-20T10:01:41;10.80;;;8.88;;
53594;SDS011;39479;45.720;11.310;2023-05-20T10:04:07;11.25;;;9.57;;
53594;SDS011;39479;45.720;11.310;2023-05-20T10:12:07;11.10;;;9.35;;
53594;SDS011;39479;45.720;11.310;2023-05-20T10:14:49;14.50;;;11.25;;
53594;SDS011;39479;45.720;11.310;2023-05-20T10:19:59;10.40;;;8.63;;
53594;SDS011;39479;45.720;11.310;2023-05-20T10:22:26;12.10;;;9.07;;
53594;SDS011;39479;45.720;11.310;2023-05-20T10:24:59;10.77;;;8.23;;
53594;SDS011;39479;45.720;11.310;2023-05-20T10:27:25;9.40;;;8.50;;
53594;SDS011;39479;45.720;11.310;2023-05-20T10:29:54;9.65;;;8.65;;
53594;SDS011;39479;45.720;11.310;2023-05-20T10:32:24;10.45;;;8.75;;
53594;SDS011;39479;45.720;11.310;2023-05-20T10:34:51;11.63;;;8.80;;
53594;SDS011;39479;45.720;11.310;2023-05-20T10:37:22;9.57;;;8.45;;
53594;SDS011;39479;45.720;11.310;2023-05-20T10:39:49;10.60;;;8.57;;
53594;SDS011;39479;45.720;11.310;2023-05-20T10:42:15;15.43;;;9.75;;
53594;SDS011;39479;45.720;11.310;2023-05-20T10:44:42;10.05;;;8.90;;
53594;SDS011;39479;45.720;11.310;2023-05-20T10:47:08;10.65;;;9.10;;
53594;SDS011;39479;45.720;11.310;2023-05-20T10:49:34;12.18;;;9.52;;
53594;SDS011;39479;45.720;11.310;2023-05-20T10:52:01;9.55;;;8.55;;
53594;SDS011;39479;45.720;11.310;2023-05-20T10:54:27;10.52;;;9.27;;
53594;SDS011;39479;45.720;11.310;2023-05-20T10:56:53;11.25;;;9.82;;
53594;SDS011;39479;45.720;11.310;2023-05-20T10:59:22;23.80;;;10.85;;
53594;SDS011;39479;45.720;11.310;2023-05-20T11:01:48;11.43;;;10.23;;
53594;SDS011;39479;45.720;11.310;2023-05-20T11:04:15;11.85;;;10.18;;
53594;SDS011;39479;45.720;11.310;2023-05-20T11:06:48;13.70;;;9.75;;
53594;SDS011;39479;45.720;11.310;2023-05-20T11:09:15;11.98;;;10.77;;
53594;SDS011;39479;45.720;11.310;2023-05-20T11:11:41;32.50;;;22.67;;
53594;SDS011;39479;45.720;11.310;2023-05-20T11:14:08;32.35;;;27.45;;
53594;SDS011;39479;45.720;11.310;2023-05-20T11:16:37;13.13;;;10.38;;
53594;SDS011;39479;45.720;11.310;2023-05-20T11:19:05;13.23;;;10.90;;
53594;SDS011;39479;45.720;11.310;2023-05-20T11:21:32;12.55;;;10.02;;
53594;SDS011;39479;45.720;11.310;2023-05-20T11:23:58;12.48;;;10.68;;
53594;SDS011;39479;45.720;11.310;2023-05-20T11:26:24;13.45;;;10.63;;
53594;SDS011;39479;45.720;11.310;2023-05-20T11:28:50;11.35;;;10.00;;
53594;SDS011;39479;45.720;11.310;2023-05-20T11:31:17;11.45;;;10.02;;
53594;SDS011;39479;45.720;11.310;2023-05-20T11:33:43;10.90;;;9.32;;
53594;SDS011;39479;45.720;11.310;2023-05-20T11:36:09;11.07;;;9.98;;
53594;SDS011;39479;45.720;11.310;2023-05-20T11:38:39;12.80;;;9.60;;
53594;SDS011;39479;45.720;11.310;2023-05-20T11:41:05;12.13;;;10.07;;
53594;SDS011;39479;45.720;11.310;2023-05-20T11:43:32;12.40;;;10.35;;
53594;SDS011;39479;45.720;11.310;2023-05-20T11:45:59;12.57;;;9.23;;
53594;SDS011;39479;45.720;11.310;2023-05-20T11:48:25;13.45;;;10.20;;
53594;SDS011;39479;45.720;11.310;2023-05-20T11:50:52;11.98;;;10.55;;
53594;SDS011;39479;45.720;11.310;2023-05-20T11:53:19;11.90;;;10.57;;
53594;SDS011;39479;45.720;11.310;2023-05-20T11:55:46;13.25;;;10.43;;
53594;SDS011;39479;45.720;11.310;2023-05-20T11:58:17;15.48;;;11.23;;
53594;SDS011;39479;45.720;11.310;2023-05-20T12:00:43;14.85;;;11.55;;
53594;SDS011;39479;45.720;11.310;2023-05-20T12:03:10;15.70;;;11.15;;
53594;SDS011;39479;45.720;11.310;2023-05-20T12:05:36;12.52;;;11.05;;
53594;SDS011;39479;45.720;11.310;2023-05-20T12:08:02;17.90;;;11.77;;
53594;SDS011;39479;45.720;11.310;2023-05-20T12:10:29;13.40;;;11.98;;
53594;SDS011;39479;45.720;11.310;2023-05-20T12:12:55;13.13;;;11.52;;
53594;SDS011;39479;45.720;11.310;2023-05-20T12:15:21;16.73;;;11.43;;
53594;SDS011;39479;45.720;11.310;2023-05-20T12:17:48;12.40;;;11.13;;
53594;SDS011;39479;45.720;11.310;2023-05-20T12:20:15;13.32;;;10.57;;
53594;SDS011;39479;45.720;11.310;2023-05-20T12:22:42;16.75;;;11.48;;
53594;SDS011;39479;45.720;11.310;2023-05-20T12:25:12;15.00;;;12.05;;
53594;SDS011;39479;45.720;11.310;2023-05-20T12:27:39;12.57;;;11.32;;
53594;SDS011;39479;45.720;11.310;2023-05-20T12:30:06;12.80;;;11.43;;
53594;SDS011;39479;45.720;11.310;2023-05-20T12:32:33;14.35;;;11.45;;
53594;SDS011;39479;45.720;11.310;2023-05-20T12:35:00;13.52;;;11.23;;
53594;SDS011;39479;45.720;11.310;2023-05-20T12:37:26;12.93;;;11.57;;
53594;SDS011;39479;45.720;11.310;2023-05-20T12:39:52;14.95;;;12.77;;
53594;SDS011;39479;45.720;11.310;2023-05-20T12:42:18;14.52;;;12.25;;
53594;SDS011;39479;45.720;11.310;2023-05-20T12:44:44;26.73;;;21.80;;
53594;SDS011;39479;45.720;11.310;2023-05-20T12:47:10;31.08;;;25.00;;
53594;SDS011;39479;45.720;11.310;2023-05-20T12:49:36;16.20;;;12.27;;
53594;SDS011;39479;45.720;11.310;2023-05-20T12:52:02;14.57;;;13.07;;
53594;SDS011;39479;45.720;11.310;2023-05-20T12:54:28;15.43;;;13.10;;
53594;SDS011;39479;45.720;11.310;2023-05-20T12:56:54;14.23;;;12.73;;
53594;SDS011;39479;45.720;11.310;2023-05-20T12:59:20;15.13;;;13.52;;
53594;SDS011;39479;45.720;11.310;2023-05-20T13:01:46;16.35;;;13.05;;
53594;SDS011;39479;45.720;11.310;2023-05-20T13:04:12;17.92;;;14.15;;
53594;SDS011;39479;45.720;11.310;2023-05-20T13:06:39;15.77;;;13.77;;
53594;SDS011;39479;45.720;11.310;2023-05-20T13:09:05;18.65;;;15.18;;
53594;SDS011;39479;45.720;11.310;2023-05-20T13:11:31;16.52;;;14.68;;
53594;SDS011;39479;45.720;11.310;2023-05-20T13:13:57;15.13;;;13.35;;
53594;SDS011;39479;45.720;11.310;2023-05-20T13:16:24;17.08;;;13.82;;
53594;SDS011;39479;45.720;11.310;2023-05-20T13:18:50;15.52;;;13.80;;
53594;SDS011;39479;45.720;11.310;2023-05-20T13:21:16;17.80;;;14.68;;
53594;SDS011;39479;45.720;11.310;2023-05-20T13:23:42;16.25;;;14.52;;
53594;SDS011;39479;45.720;11.310;2023-05-20T13:26:08;16.80;;;13.93;;
53594;SDS011;39479;45.720;11.310;2023-05-20T13:28:34;16.92;;;14.95;;
53594;SDS011;39479;45.720;11.310;2023-05-20T13:31:03;19.83;;;15.43;;
53594;SDS011;39479;45.720;11.310;2023-05-20T13:33:31;17.88;;;15.30;;
53594;SDS011;39479;45.720;11.310;2023-05-20T13:35:57;19.13;;;15.70;;
53594;SDS011;39479;45.720;11.310;2023-05-20T13:38:24;16.77;;;14.50;;
53594;SDS011;39479;45.720;11.310;2023-05-20T13:40:50;16.05;;;13.98;;
53594;SDS011;39479;45.720;11.310;2023-05-20T13:43:16;17.27;;;15.48;;
53594;SDS011;39479;45.720;11.310;2023-05-20T13:45:42;16.63;;;14.98;;
53594;SDS011;39479;45.720;11.310;2023-05-20T13:48:08;16.63;;;14.60;;
53594;SDS011;39479;45.720;11.310;2023-05-20T13:50:35;20.60;;;16.70;;
53594;SDS011;39479;45.720;11.310;2023-05-20T13:53:01;17.90;;;15.77;;
53594;SDS011;39479;45.720;11.310;2023-05-20T13:55:27;18.67;;;15.90;;
53594;SDS011;39479;45.720;11.310;2023-05-20T13:57:53;18.20;;;15.52;;
53594;SDS011;39479;45.720;11.310;2023-05-20T14:00:19;17.77;;;15.60;;
53594;SDS011;39479;45.720;11.310;2023-05-20T14:02:45;16.70;;;14.68;;
53594;SDS011;39479;45.720;11.310;2023-05-20T14:05:12;18.13;;;15.15;;
53594;SDS011;39479;45.720;11.310;2023-05-20T14:07:38;17.48;;;15.57;;
53594;SDS011;39479;45.720;11.310;2023-05-20T14:10:04;17.83;;;15.13;;
53594;SDS011;39479;45.720;11.310;2023-05-20T14:12:31;17.48;;;14.90;;
53594;SDS011;39479;45.720;11.310;2023-05-20T14:14:57;17.33;;;15.52;;
53594;SDS011;39479;45.720;11.310;2023-05-20T14:17:23;18.10;;;15.50;;
53594;SDS011;39479;45.720;11.310;2023-05-20T14:19:49;18.05;;;15.93;;
53594;SDS011;39479;45.720;11.310;2023-05-20T14:22:15;20.30;;;15.35;;
53594;SDS011;39479;45.720;11.310;2023-05-20T14:24:41;17.38;;;14.85;;
53594;SDS011;39479;45.720;11.310;2023-05-20T14:27:07;19.77;;;15.85;;
53594;SDS011;39479;45.720;11.310;2023-05-20T14:29:35;23.23;;;18.60;;